createdAt,value
2023-05-02T00:01:22.519Z,13.50
2023-05-02T00:03:49.958Z,13.50
2023-05-02T00:06:17.369Z,13.40
2023-05-02T00:08:44.734Z,13.30
2023-05-02T00:11:14.483Z,13.30
2023-05-02T00:13:41.624Z,13.30
2023-05-02T00:16:08.800Z,13.20
2023-05-02T00:18:35.998Z,13.20
2023-05-02T00:21:03.353Z,13.20
2023-05-02T00:23:30.428Z,13.10
2023-05-02T00:25:57.474Z,13.10
2023-05-02T00:28:26.494Z,13.10
2023-05-02T00:30:53.978Z,13.10
2023-05-02T00:33:21.113Z,13.10
2023-05-02T00:35:48.196Z,13.00
2023-05-02T00:38:15.245Z,13.00
2023-05-02T00:40:53.590Z,13.00
2023-05-02T00:43:21.311Z,13.00
2023-05-02T00:45:48.878Z,13.00
2023-05-02T00:48:18.023Z,12.90
2023-05-02T00:50:45.179Z,12.90
2023-05-02T00:53:12.320Z,12.90
2023-05-02T00:55:39.608Z,12.80
2023-05-02T00:58:19.220Z,12.80
2023-05-02T01:01:24.630Z,12.70
2023-05-02T01:04:00.548Z,12.70
2023-05-02T01:06:42.813Z,12.70
2023-05-02T01:09:56.005Z,12.60
2023-05-02T01:12:35.789Z,12.60
2023-05-02T01:15:10.604Z,12.60
2023-05-02T01:17:38.981Z,12.60
2023-05-02T01:20:13.792Z,12.50
2023-05-02T01:22:41.490Z,12.50
2023-05-02T01:26:09.795Z,12.50
2023-05-02T01:28:48.923Z,12.50
2023-05-02T01:31:16.755Z,12.50
2023-05-02T01:33:48.037Z,12.40
2023-05-02T01:36:17.615Z,12.40
2023-05-02T01:38:45.583Z,12.40
2023-05-02T01:41:14.385Z,12.40
2023-05-02T01:43:42.729Z,12.40
2023-05-02T01:46:11.558Z,12.40
2023-05-02T01:48:40.904Z,12.40
2023-05-02T01:51:09.412Z,12.40
2023-05-02T01:53:38.315Z,12.40
2023-05-02T01:56:06.460Z,12.40
2023-05-02T01:58:36.196Z,12.40
2023-05-02T02:01:05.836Z,12.40
2023-05-02T02:03:33.125Z,12.40
2023-05-02T02:06:03.708Z,12.40
2023-05-02T02:08:31.112Z,12.40
2023-05-02T02:11:04.485Z,12.40
2023-05-02T02:13:37.621Z,12.40
2023-05-02T02:16:09.134Z,12.40
2023-05-02T02:18:39.215Z,12.40
2023-05-02T02:21:12.002Z,12.40
2023-05-02T02:23:43.677Z,12.40
2023-05-02T02:26:12.744Z,12.40
2023-05-02T02:28:40.127Z,12.40
2023-05-02T02:31:07.379Z,12.40
2023-05-02T02:33:34.615Z,12.40
2023-05-02T02:36:19.205Z,12.40
2023-05-02T02:39:02.470Z,12.40
2023-05-02T02:41:42.418Z,12.40
2023-05-02T02:44:32.533Z,12.40
2023-05-02T02:47:32.436Z,12.40
2023-05-02T02:50:31.609Z,12.40
2023-05-02T02:53:08.740Z,12.40
2023-05-02T02:55:57.879Z,12.40
2023-05-02T02:58:53.970Z,12.40
2023-05-02T03:01:24.505Z,12.40
2023-05-02T03:03:53.613Z,12.50
2023-05-02T03:06:21.332Z,12.50
2023-05-02T03:08:48.887Z,12.50
2023-05-02T03:11:16.478Z,12.50
2023-05-02T03:13:43.698Z,12.60
2023-05-02T03:16:35.195Z,12.60
2023-05-02T03:19:06.888Z,12.70
2023-05-02T03:21:35.509Z,12.70
2023-05-02T03:24:04.534Z,12.80
2023-05-02T03:26:31.768Z,12.80
2023-05-02T03:29:01.261Z,12.80
2023-05-02T03:31:28.410Z,12.80
2023-05-02T03:33:55.547Z,12.80
2023-05-02T03:36:22.670Z,12.80
2023-05-02T03:38:49.736Z,12.80
2023-05-02T03:41:16.799Z,12.80
2023-05-02T03:43:43.863Z,12.90
2023-05-02T03:46:11.955Z,12.90
2023-05-02T03:48:39.166Z,12.90
2023-05-02T03:51:08.375Z,12.90
2023-05-02T03:53:36.087Z,12.90
2023-05-02T03:56:03.396Z,12.90
2023-05-02T03:58:30.460Z,13.00
2023-05-02T04:00:57.520Z,13.00
2023-05-02T04:03:24.961Z,13.10
2023-05-02T04:05:52.912Z,13.10
2023-05-02T04:08:20.003Z,13.10
2023-05-02T04:10:47.251Z,13.10
2023-05-02T04:13:14.396Z,13.20
2023-05-02T04:15:41.553Z,13.20
2023-05-02T04:18:08.758Z,13.20
2023-05-02T04:20:35.885Z,13.30
2023-05-02T04:23:03.108Z,13.30
2023-05-02T04:25:30.282Z,13.30
2023-05-02T04:27:57.349Z,13.30
2023-05-02T04:30:24.513Z,13.30
2023-05-02T04:32:52.374Z,13.40
2023-05-02T04:35:19.593Z,13.40
2023-05-02T04:37:47.425Z,13.40
2023-05-02T04:40:14.657Z,13.50
2023-05-02T04:42:41.754Z,13.50
2023-05-02T04:45:09.535Z,13.60
2023-05-02T04:47:37.100Z,13.60
2023-05-02T04:50:04.586Z,13.60
2023-05-02T04:52:31.744Z,13.60
2023-05-02T04:54:59.131Z,13.60
2023-05-02T04:57:26.229Z,13.60
2023-05-02T04:59:53.359Z,13.70
2023-05-02T05:02:20.593Z,13.70
2023-05-02T05:04:47.859Z,13.70
2023-05-02T05:07:14.863Z,13.70
2023-05-02T05:09:41.932Z,13.70
2023-05-02T05:12:09.069Z,13.80
2023-05-02T05:14:36.311Z,13.80
2023-05-02T05:17:03.413Z,13.80
2023-05-02T05:19:30.496Z,13.90
2023-05-02T05:21:57.607Z,13.90
2023-05-02T05:24:24.642Z,13.90
2023-05-02T05:26:51.716Z,13.90
2023-05-02T05:29:19.320Z,14.00
2023-05-02T05:31:46.462Z,14.00
2023-05-02T05:34:14.587Z,14.00
2023-05-02T05:36:42.217Z,14.10
2023-05-02T05:39:10.266Z,14.10
2023-05-02T05:41:38.363Z,14.10
2023-05-02T05:44:05.751Z,14.20
2023-05-02T05:46:32.971Z,14.20
2023-05-02T05:49:00.173Z,14.30
2023-05-02T05:51:27.949Z,14.30
2023-05-02T05:53:55.801Z,14.40
2023-05-02T05:56:23.283Z,14.40
2023-05-02T05:58:50.415Z,14.50
2023-05-02T06:01:17.511Z,14.50
2023-05-02T06:03:44.770Z,14.60
2023-05-02T06:06:12.020Z,14.60
2023-05-02T06:08:39.313Z,14.70
2023-05-02T06:11:11.771Z,14.70
2023-05-02T06:13:39.079Z,14.80
2023-05-02T06:16:09.054Z,14.80
2023-05-02T06:18:36.202Z,14.80
2023-05-02T06:21:06.862Z,14.90
2023-05-02T06:23:34.623Z,15.00
2023-05-02T06:26:03.510Z,15.00
2023-05-02T06:28:31.194Z,15.10
2023-05-02T06:31:03.169Z,15.20
2023-05-02T06:33:32.050Z,15.30
2023-05-02T06:36:01.715Z,15.40
2023-05-02T06:38:29.805Z,15.50
2023-05-02T06:40:56.911Z,15.70
2023-05-02T06:43:24.075Z,15.80
2023-05-02T06:45:54.740Z,15.90
2023-05-02T06:48:22.315Z,16.00
2023-05-02T06:50:51.874Z,16.10
2023-05-02T06:53:19.011Z,16.10
2023-05-02T06:55:48.460Z,16.20
2023-05-02T06:58:16.098Z,16.30
2023-05-02T07:00:43.227Z,16.40
2023-05-02T07:03:13.832Z,16.40
2023-05-02T07:05:41.315Z,16.50
2023-05-02T07:08:09.279Z,16.60
2023-05-02T07:10:36.634Z,16.70
2023-05-02T07:13:03.823Z,16.70
2023-05-02T07:15:31.058Z,16.80
2023-05-02T07:17:58.243Z,16.80
2023-05-02T07:20:25.640Z,16.90
2023-05-02T07:22:52.804Z,17.00
2023-05-02T07:25:19.900Z,17.00
2023-05-02T07:27:47.089Z,17.10
2023-05-02T07:30:14.226Z,17.20
2023-05-02T07:32:41.463Z,17.20
2023-05-02T07:35:09.328Z,17.30
2023-05-02T07:37:37.002Z,17.40
2023-05-02T07:40:05.110Z,17.40
2023-05-02T07:42:32.604Z,17.50
2023-05-02T07:45:00.277Z,17.40
2023-05-02T07:47:27.883Z,17.50
2023-05-02T07:49:56.153Z,17.50
2023-05-02T07:52:23.418Z,17.50
2023-05-02T07:54:51.549Z,17.50
2023-05-02T07:57:19.126Z,17.50
2023-05-02T07:59:46.398Z,17.50
2023-05-02T08:02:14.109Z,17.40
2023-05-02T08:04:41.867Z,17.40
2023-05-02T08:07:09.241Z,17.40
2023-05-02T08:09:36.271Z,17.40
2023-05-02T08:12:03.547Z,17.40
2023-05-02T08:14:31.738Z,17.40
2023-05-02T08:17:00.186Z,17.40
2023-05-02T08:19:27.948Z,17.50
2023-05-02T08:21:56.008Z,17.50
2023-05-02T08:24:23.198Z,17.50
2023-05-02T08:26:50.878Z,17.60
2023-05-02T08:29:17.996Z,17.60
2023-05-02T08:31:45.252Z,17.70
2023-05-02T08:34:12.445Z,17.80
2023-05-02T08:36:39.535Z,17.90
2023-05-02T08:39:08.304Z,18.00
2023-05-02T08:41:35.598Z,18.00
2023-05-02T08:44:04.173Z,18.10
2023-05-02T08:46:32.344Z,18.10
2023-05-02T08:49:00.179Z,18.20
2023-05-02T08:51:29.704Z,18.20
2023-05-02T08:53:58.593Z,18.20
2023-05-02T08:56:26.283Z,18.20
2023-05-02T08:58:53.372Z,18.20
2023-05-02T09:01:24.363Z,18.20
2023-05-02T09:03:52.728Z,18.20
2023-05-02T09:06:22.953Z,18.20
2023-05-02T09:08:54.889Z,18.00
2023-05-02T09:11:22.346Z,17.90
2023-05-02T09:13:52.242Z,17.80
2023-05-02T09:16:24.030Z,17.70
2023-05-02T09:18:53.198Z,17.60
2023-05-02T09:21:27.984Z,17.50
2023-05-02T09:23:59.137Z,17.50
2023-05-02T09:26:32.772Z,17.40
2023-05-02T09:29:05.410Z,17.50
2023-05-02T09:34:16.519Z,17.50
2023-05-02T09:36:52.205Z,17.60
2023-05-02T09:39:25.473Z,17.60
2023-05-02T09:41:54.418Z,17.60
2023-05-02T09:44:36.146Z,17.70
2023-05-02T09:47:03.627Z,17.70
2023-05-02T09:49:45.722Z,17.80
2023-05-02T09:52:16.032Z,17.80
2023-05-02T09:54:43.549Z,18.00
2023-05-02T09:57:11.197Z,18.10
2023-05-02T09:59:41.170Z,18.20
2023-05-02T10:02:11.320Z,18.20
2023-05-02T10:04:39.798Z,18.20
2023-05-02T10:07:10.574Z,18.30
2023-05-02T10:09:43.779Z,18.30
2023-05-02T10:12:16.662Z,18.30
2023-05-02T10:14:56.131Z,18.30
2023-05-02T10:17:31.087Z,18.30
2023-05-02T10:20:04.225Z,18.20
2023-05-02T10:22:34.992Z,18.20
2023-05-02T10:25:03.855Z,18.20
2023-05-02T10:27:32.411Z,18.20
2023-05-02T10:30:01.601Z,18.30
2023-05-02T10:32:29.626Z,18.30
2023-05-02T10:35:02.934Z,18.30
2023-05-02T10:37:33.610Z,18.30
2023-05-02T10:40:01.531Z,18.40
2023-05-02T10:42:30.292Z,18.50
2023-05-02T10:44:57.818Z,18.50
2023-05-02T10:47:27.541Z,18.50
2023-05-02T10:50:05.384Z,18.50
2023-05-02T10:52:38.275Z,18.50
2023-05-02T10:55:22.065Z,18.50
2023-05-02T10:57:58.602Z,18.50
2023-05-02T11:00:36.269Z,18.40
2023-05-02T11:03:03.804Z,18.40
2023-05-02T11:05:31.025Z,18.40
2023-05-02T11:08:16.825Z,18.40
2023-05-02T11:10:46.433Z,18.40
2023-05-02T11:13:13.651Z,18.40
2023-05-02T11:15:40.842Z,18.30
2023-05-02T11:18:12.817Z,18.20
2023-05-02T11:20:45.591Z,18.20
2023-05-02T11:23:16.157Z,18.20
2023-05-02T11:25:47.535Z,18.30
2023-05-02T11:28:48.487Z,18.30
2023-05-02T11:31:27.968Z,18.30
2023-05-02T11:34:00.331Z,18.30
2023-05-02T11:36:34.578Z,18.30
2023-05-02T11:39:03.716Z,18.40
2023-05-02T11:41:43.906Z,18.50
2023-05-02T11:44:10.992Z,18.60
2023-05-02T11:46:42.275Z,18.60
2023-05-02T11:49:11.044Z,18.70
2023-05-02T11:51:39.330Z,18.70
2023-05-02T11:54:08.199Z,18.80
2023-05-02T11:56:35.805Z,18.90
2023-05-02T11:59:04.196Z,18.80
2023-05-02T12:01:31.514Z,18.80
2023-05-02T12:04:10.386Z,18.90
2023-05-02T12:06:37.675Z,19.00
2023-05-02T12:09:17.169Z,19.20
2023-05-02T12:11:44.783Z,19.40
2023-05-02T12:14:12.657Z,19.50
2023-05-02T12:16:41.603Z,19.80
2023-05-02T12:19:08.951Z,20.00
2023-05-02T12:21:36.150Z,20.10
2023-05-02T12:24:03.670Z,20.40
2023-05-02T12:26:32.812Z,20.40
2023-05-02T12:29:02.088Z,20.40
2023-05-02T12:31:31.504Z,20.40
2023-05-02T12:34:01.186Z,20.30
2023-05-02T12:36:29.452Z,20.30
2023-05-02T12:39:02.661Z,20.30
2023-05-02T12:41:35.859Z,20.20
2023-05-02T12:44:04.377Z,20.30
2023-05-02T12:46:32.339Z,20.30
2023-05-02T12:49:09.451Z,20.30
2023-05-02T12:51:39.560Z,20.40
2023-05-02T12:54:07.222Z,20.40
2023-05-02T12:56:43.662Z,20.40
2023-05-02T12:59:28.711Z,20.40
2023-05-02T13:01:55.972Z,20.30
2023-05-02T13:04:42.260Z,20.30
2023-05-02T13:07:09.365Z,20.20
2023-05-02T13:09:36.394Z,20.10
2023-05-02T13:12:03.988Z,20.10
2023-05-02T13:14:31.238Z,20.00
2023-05-02T13:16:59.226Z,20.00
2023-05-02T13:19:29.253Z,19.80
2023-05-02T13:21:56.294Z,19.60
2023-05-02T13:24:23.585Z,19.50
2023-05-02T13:26:51.584Z,19.40
2023-05-02T13:29:18.687Z,19.30
2023-05-02T13:31:45.845Z,19.30
2023-05-02T13:34:12.910Z,19.30
2023-05-02T13:36:46.099Z,19.20
2023-05-02T13:39:14.046Z,19.10
2023-05-02T13:41:41.509Z,19.10
2023-05-02T13:44:15.630Z,19.00
2023-05-02T13:46:43.090Z,19.00
2023-05-02T13:49:10.401Z,18.90
2023-05-02T13:51:37.460Z,18.90
2023-05-02T13:54:04.583Z,18.90
2023-05-02T13:56:31.780Z,18.80
2023-05-02T13:58:58.883Z,18.80
2023-05-02T14:01:29.142Z,18.80
2023-05-02T14:03:56.375Z,18.70
2023-05-02T14:06:23.856Z,18.50
2023-05-02T14:08:54.202Z,18.50
2023-05-02T14:11:21.265Z,18.30
2023-05-02T14:13:48.366Z,18.20
2023-05-02T14:16:15.524Z,18.10
2023-05-02T14:18:42.897Z,18.00
2023-05-02T14:21:10.058Z,18.00
2023-05-02T14:23:37.324Z,17.90
2023-05-02T14:26:04.656Z,17.80
2023-05-02T14:28:32.268Z,17.70
2023-05-02T14:30:59.451Z,17.70
2023-05-02T14:33:27.195Z,17.70
2023-05-02T14:35:54.345Z,17.60
2023-05-02T14:38:21.769Z,17.60
2023-05-02T14:40:48.834Z,17.60
2023-05-02T14:43:16.116Z,17.50
2023-05-02T14:45:43.200Z,17.50
2023-05-02T14:48:11.811Z,17.50
2023-05-02T14:50:39.715Z,17.50
2023-05-02T14:53:07.255Z,17.50
2023-05-02T14:55:40.660Z,17.50
2023-05-02T14:58:09.065Z,17.50
2023-05-02T15:00:40.054Z,17.60
2023-05-02T15:03:08.338Z,17.60
2023-05-02T15:05:37.128Z,17.60
2023-05-02T15:08:04.582Z,17.60
2023-05-02T15:10:34.530Z,17.60
2023-05-02T15:13:01.717Z,17.60
2023-05-02T15:15:28.778Z,17.50
2023-05-02T15:17:55.901Z,17.50
2023-05-02T15:20:23.185Z,17.50
2023-05-02T15:22:50.479Z,17.50
2023-05-02T15:25:17.668Z,17.50
2023-05-02T15:27:44.931Z,17.50
2023-05-02T15:30:12.515Z,17.50
2023-05-02T15:32:39.646Z,17.40
2023-05-02T15:35:08.801Z,17.40
2023-05-02T15:37:36.182Z,17.30
2023-05-02T15:40:04.447Z,17.30
2023-05-02T15:42:35.524Z,17.30
2023-05-02T15:45:04.498Z,17.20
2023-05-02T15:47:32.459Z,17.10
2023-05-02T15:50:00.389Z,17.10
2023-05-02T15:52:27.828Z,17.00
2023-05-02T15:57:23.448Z,16.90
2023-05-02T15:59:50.817Z,16.90
2023-05-02T16:02:18.234Z,16.90
2023-05-02T16:04:45.581Z,16.80
2023-05-02T16:07:12.794Z,16.80
2023-05-02T16:09:40.197Z,16.70
2023-05-02T16:12:07.526Z,16.70
2023-05-02T16:14:34.977Z,16.60
2023-05-02T16:17:02.195Z,16.60
2023-05-02T16:19:29.453Z,16.60
2023-05-02T16:21:56.993Z,16.60
2023-05-02T16:24:24.274Z,16.50
2023-05-02T16:26:51.604Z,16.50
2023-05-02T16:29:18.856Z,16.40
2023-05-02T16:31:46.110Z,16.40
2023-05-02T16:34:13.304Z,16.40
2023-05-02T16:36:43.066Z,16.30
2023-05-02T16:39:10.858Z,16.30
2023-05-02T16:41:37.972Z,16.30
2023-05-02T16:44:05.241Z,16.30
2023-05-02T16:46:32.841Z,16.20
2023-05-02T16:49:00.005Z,16.20
2023-05-02T16:51:27.967Z,16.20
2023-05-02T16:53:55.092Z,16.10
2023-05-02T16:56:22.384Z,16.10
2023-05-02T16:58:49.566Z,16.10
2023-05-02T17:01:17.317Z,16.00
2023-05-02T17:03:44.455Z,16.00
2023-05-02T17:06:11.717Z,16.00
2023-05-02T17:08:39.215Z,15.90
2023-05-02T17:11:07.938Z,15.90
2023-05-02T17:13:35.195Z,15.90
2023-05-02T17:16:02.574Z,15.80
2023-05-02T17:18:29.773Z,15.80
2023-05-02T17:20:57.016Z,15.70
2023-05-02T17:23:24.327Z,15.70
2023-05-02T17:25:51.693Z,15.70
2023-05-02T17:28:20.297Z,15.60
2023-05-02T17:30:48.547Z,15.60
2023-05-02T17:33:15.964Z,15.50
2023-05-02T17:35:43.265Z,15.50
2023-05-02T17:38:10.490Z,15.50
2023-05-02T17:40:38.258Z,15.40
2023-05-02T17:43:06.750Z,15.40
2023-05-02T17:45:33.998Z,15.40
2023-05-02T17:48:03.266Z,15.30
2023-05-02T17:50:33.206Z,15.30
2023-05-02T17:53:00.493Z,15.20
2023-05-02T17:55:28.168Z,15.20
2023-05-02T17:57:55.916Z,15.10
2023-05-02T18:00:23.152Z,15.00
2023-05-02T18:02:50.558Z,15.00
2023-05-02T18:05:18.252Z,14.90
2023-05-02T18:07:45.531Z,14.80
2023-05-02T18:10:13.032Z,14.80
2023-05-02T18:12:40.743Z,14.80
2023-05-02T18:15:09.518Z,14.70
2023-05-02T18:17:39.769Z,14.60
2023-05-02T18:20:10.395Z,14.60
2023-05-02T18:22:38.110Z,14.50
2023-05-02T18:25:06.450Z,14.40
2023-05-02T18:27:34.974Z,14.30
2023-05-02T18:30:02.730Z,14.30
2023-05-02T18:32:34.489Z,14.20
2023-05-02T18:35:04.670Z,14.10
2023-05-02T18:37:32.938Z,14.10
2023-05-02T18:40:01.021Z,14.00
2023-05-02T18:42:28.945Z,13.90
2023-05-02T18:44:56.561Z,13.80
2023-05-02T18:47:25.056Z,13.80
2023-05-02T18:49:56.380Z,13.80
2023-05-02T18:52:25.061Z,13.70
2023-05-02T18:54:52.990Z,13.70
2023-05-02T18:57:22.338Z,13.70
2023-05-02T18:59:51.395Z,13.60
2023-05-02T19:02:18.807Z,13.60
2023-05-02T19:04:46.463Z,13.60
2023-05-02T19:07:14.005Z,13.50
2023-05-02T19:09:41.674Z,13.50
2023-05-02T19:12:09.415Z,13.50
2023-05-02T19:14:39.912Z,13.50
2023-05-02T19:17:07.915Z,13.40
2023-05-02T19:19:35.739Z,13.40
2023-05-02T19:22:04.190Z,13.40
2023-05-02T19:24:32.433Z,13.30
2023-05-02T19:27:01.329Z,13.30
2023-05-02T19:29:30.035Z,13.30
2023-05-02T19:31:59.402Z,13.20
2023-05-02T19:34:28.259Z,13.20
2023-05-02T19:36:55.829Z,13.20
2023-05-02T19:39:24.007Z,13.20
2023-05-02T19:41:52.541Z,13.20
2023-05-02T19:44:22.163Z,13.20
2023-05-02T19:46:51.762Z,13.20
2023-05-02T19:49:21.073Z,13.20
2023-05-02T19:51:49.567Z,13.20
2023-05-02T19:54:16.953Z,13.10
2023-05-02T19:56:44.891Z,13.10
2023-05-02T19:59:12.088Z,13.10
2023-05-02T20:01:39.581Z,13.10
2023-05-02T20:04:07.926Z,13.10
2023-05-02T20:06:36.868Z,13.10
2023-05-02T20:09:04.874Z,13.10
2023-05-02T20:11:32.973Z,13.10
2023-05-02T20:14:00.487Z,13.10
2023-05-02T20:16:28.694Z,13.10
2023-05-02T20:18:56.326Z,13.00
2023-05-02T20:21:24.288Z,13.10
2023-05-02T20:23:51.401Z,13.10
2023-05-02T20:26:18.762Z,13.10
2023-05-02T20:28:45.903Z,13.10
2023-05-02T20:31:13.339Z,13.10
2023-05-02T20:33:45.270Z,13.10
2023-05-02T20:36:15.007Z,13.10
2023-05-02T20:38:42.992Z,13.00
2023-05-02T20:41:14.011Z,13.10
2023-05-02T20:43:44.987Z,13.00
2023-05-02T20:46:16.309Z,13.00
2023-05-02T20:48:43.901Z,13.10
2023-05-02T20:51:11.120Z,13.00
2023-05-02T20:53:39.074Z,13.00
2023-05-02T20:56:07.161Z,13.00
2023-05-02T20:58:34.313Z,13.00
2023-05-02T21:01:01.588Z,13.00
2023-05-02T21:03:28.953Z,13.00
2023-05-02T21:05:57.198Z,13.00
2023-05-02T21:08:24.286Z,13.00
2023-05-02T21:10:51.583Z,13.00
2023-05-02T21:13:18.781Z,13.00
2023-05-02T21:15:46.008Z,12.90
2023-05-02T21:18:13.200Z,12.90
2023-05-02T21:20:41.624Z,13.00
2023-05-02T21:23:11.372Z,12.90
2023-05-02T21:25:38.682Z,12.90
2023-05-02T21:28:06.216Z,12.90
2023-05-02T21:30:33.436Z,12.90
2023-05-02T21:33:00.567Z,12.90
2023-05-02T21:35:28.778Z,12.90
2023-05-02T21:37:56.003Z,12.90
2023-05-02T21:40:23.084Z,12.90
2023-05-02T21:42:50.243Z,12.90
2023-05-02T21:45:17.464Z,12.90
2023-05-02T21:47:44.584Z,12.90
2023-05-02T21:50:11.773Z,12.90
2023-05-02T21:52:39.005Z,12.90
2023-05-02T21:55:06.703Z,12.90
2023-05-02T21:57:33.756Z,12.90
2023-05-02T22:00:01.282Z,12.90
2023-05-02T22:02:28.781Z,13.00
2023-05-02T22:04:57.855Z,12.90
2023-05-02T22:07:25.129Z,12.90
2023-05-02T22:09:52.643Z,12.90
2023-05-02T22:12:25.892Z,12.90
2023-05-02T22:14:53.068Z,12.90
2023-05-02T22:17:22.804Z,12.90
2023-05-02T22:19:51.757Z,12.90
2023-05-02T22:22:18.827Z,12.90
2023-05-02T22:24:45.864Z,12.90
2023-05-02T22:27:12.912Z,12.90
2023-05-02T22:29:39.938Z,12.90
2023-05-02T22:32:07.139Z,12.90
2023-05-02T22:34:35.391Z,12.80
2023-05-02T22:37:02.472Z,12.90
2023-05-02T22:39:29.677Z,12.80
2023-05-02T22:41:57.227Z,12.80
2023-05-02T22:44:24.334Z,12.80
2023-05-02T22:46:51.810Z,12.80
2023-05-02T22:49:19.838Z,12.80
2023-05-02T22:51:48.044Z,12.80
2023-05-02T22:54:15.351Z,12.70
2023-05-02T22:56:42.433Z,12.80
2023-05-02T22:59:10.815Z,12.80
2023-05-02T23:01:37.946Z,12.80
2023-05-02T23:04:05.125Z,12.70
2023-05-02T23:06:32.272Z,12.80
2023-05-02T23:08:59.357Z,12.80
2023-05-02T23:11:26.756Z,12.70
2023-05-02T23:13:53.809Z,12.70
2023-05-02T23:16:20.902Z,12.70
2023-05-02T23:18:48.243Z,12.70
2023-05-02T23:21:16.377Z,12.70
2023-05-02T23:23:43.813Z,12.70
2023-05-02T23:26:11.048Z,12.60
2023-05-02T23:28:40.169Z,12.60
2023-05-02T23:31:08.328Z,12.60
2023-05-02T23:33:36.166Z,12.60
2023-05-02T23:36:03.995Z,12.60
2023-05-02T23:38:32.030Z,12.60
2023-05-02T23:40:59.158Z,12.60
2023-05-02T23:43:26.768Z,12.60
2023-05-02T23:45:53.847Z,12.50
2023-05-02T23:48:20.936Z,12.60
2023-05-02T23:50:48.093Z,12.50
2023-05-02T23:53:15.133Z,12.50
2023-05-02T23:55:42.314Z,12.50
2023-05-02T23:58:09.648Z,12.50
